sensor_id;sensor_type;location;lat;lon;timestamp;temperature;humidity
40660;DHT22;26753;45.544;9.232;2022-07-12T00:00:30;28.00;84.40
40660;DHT22;26753;45.544;9.232;2022-07-12T00:02:56;28.00;84.20
40660;DHT22;26753;45.544;9.232;2022-07-12T00:05:21;28.00;84.10
40660;DHT22;26753;45.544;9.232;2022-07-12T00:07:47;28.00;83.80
40660;DHT22;26753;45.544;9.232;2022-07-12T00:10:13;28.00;83.50
40660;DHT22;26753;45.544;9.232;2022-07-12T00:12:39;28.10;83.50
40660;DHT22;26753;45.544;9.232;2022-07-12T00:15:06;28.00;83.00
40660;DHT22;26753;45.544;9.232;2022-07-12T00:17:32;28.00;82.80
40660;DHT22;26753;45.544;9.232;2022-07-12T00:19:57;28.00;82.80
40660;DHT22;26753;45.544;9.232;2022-07-12T00:22:23;27.90;82.50
40660;DHT22;26753;45.544;9.232;2022-07-12T00:24:49;27.90;82.30
40660;DHT22;26753;45.544;9.232;2022-07-12T00:27:15;27.90;82.20
40660;DHT22;26753;45.544;9.232;2022-07-12T00:29:41;28.10;82.10
40660;DHT22;26753;45.544;9.232;2022-07-12T00:32:07;27.80;81.60
40660;DHT22;26753;45.544;9.232;2022-07-12T00:34:34;27.80;81.50
40660;DHT22;26753;45.544;9.232;2022-07-12T00:37:02;27.80;81.40
40660;DHT22;26753;45.544;9.232;2022-07-12T00:39:28;27.70;81.10
40660;DHT22;26753;45.544;9.232;2022-07-12T00:41:54;27.70;81.10
40660;DHT22;26753;45.544;9.232;2022-07-12T00:44:19;27.60;81.10
40660;DHT22;26753;45.544;9.232;2022-07-12T00:46:45;27.60;81.70
40660;DHT22;26753;45.544;9.232;2022-07-12T00:49:17;27.60;80.80
40660;DHT22;26753;45.544;9.232;2022-07-12T00:51:44;27.50;80.60
40660;DHT22;26753;45.544;9.232;2022-07-12T00:54:10;27.40;80.60
40660;DHT22;26753;45.544;9.232;2022-07-12T00:56:39;27.40;80.60
40660;DHT22;26753;45.544;9.232;2022-07-12T00:59:05;27.50;80.40
40660;DHT22;26753;45.544;9.232;2022-07-12T01:01:34;27.40;80.30
40660;DHT22;26753;45.544;9.232;2022-07-12T01:04:00;27.40;80.30
40660;DHT22;26753;45.544;9.232;2022-07-12T01:06:27;27.40;80.20
40660;DHT22;26753;45.544;9.232;2022-07-12T01:08:53;27.30;80.00
40660;DHT22;26753;45.544;9.232;2022-07-12T01:11:18;27.30;80.00
40660;DHT22;26753;45.544;9.232;2022-07-12T01:13:47;27.20;80.00
40660;DHT22;26753;45.544;9.232;2022-07-12T01:16:14;27.20;80.10
40660;DHT22;26753;45.544;9.232;2022-07-12T01:18:41;27.20;79.90
40660;DHT22;26753;45.544;9.232;2022-07-12T01:21:08;27.20;80.20
40660;DHT22;26753;45.544;9.232;2022-07-12T01:23:36;27.10;79.60
40660;DHT22;26753;45.544;9.232;2022-07-12T01:26:03;27.10;79.50
40660;DHT22;26753;45.544;9.232;2022-07-12T01:28:29;27.10;79.50
40660;DHT22;26753;45.544;9.232;2022-07-12T01:30:58;27.10;79.50
40660;DHT22;26753;45.544;9.232;2022-07-12T01:33:25;27.10;79.50
40660;DHT22;26753;45.544;9.232;2022-07-12T01:35:52;27.00;79.40
40660;DHT22;26753;45.544;9.232;2022-07-12T01:38:17;26.90;79.30
40660;DHT22;26753;45.544;9.232;2022-07-12T01:40:46;26.80;79.30
40660;DHT22;26753;45.544;9.232;2022-07-12T01:43:12;26.80;79.30
40660;DHT22;26753;45.544;9.232;2022-07-12T01:45:38;26.80;79.30
40660;DHT22;26753;45.544;9.232;2022-07-12T01:48:05;26.80;79.20
40660;DHT22;26753;45.544;9.232;2022-07-12T01:50:48;26.80;79.20
40660;DHT22;26753;45.544;9.232;2022-07-12T01:53:15;26.80;79.30
40660;DHT22;26753;45.544;9.232;2022-07-12T01:55:41;26.80;79.10
40660;DHT22;26753;45.544;9.232;2022-07-12T01:58:08;26.80;79.30
40660;DHT22;26753;45.544;9.232;2022-07-12T02:00:44;26.80;79.40
40660;DHT22;26753;45.544;9.232;2022-07-12T02:03:17;26.70;79.40
40660;DHT22;26753;45.544;9.232;2022-07-12T02:05:43;26.70;79.50
40660;DHT22;26753;45.544;9.232;2022-07-12T02:08:14;26.70;79.60
40660;DHT22;26753;45.544;9.232;2022-07-12T02:10:41;26.70;79.60
40660;DHT22;26753;45.544;9.232;2022-07-12T02:13:10;26.60;79.50
40660;DHT22;26753;45.544;9.232;2022-07-12T02:15:36;26.60;79.70
40660;DHT22;26753;45.544;9.232;2022-07-12T02:18:02;26.60;79.70
40660;DHT22;26753;45.544;9.232;2022-07-12T02:20:28;26.50;79.60
40660;DHT22;26753;45.544;9.232;2022-07-12T02:22:54;26.50;79.70
40660;DHT22;26753;45.544;9.232;2022-07-12T02:25:20;26.50;79.70
40660;DHT22;26753;45.544;9.232;2022-07-12T02:27:46;26.40;79.70
40660;DHT22;26753;45.544;9.232;2022-07-12T02:30:11;26.50;79.80
40660;DHT22;26753;45.544;9.232;2022-07-12T02:32:40;26.50;79.80
40660;DHT22;26753;45.544;9.232;2022-07-12T02:35:14;26.50;79.60
40660;DHT22;26753;45.544;9.232;2022-07-12T02:37:43;26.50;79.70
40660;DHT22;26753;45.544;9.232;2022-07-12T02:40:09;26.40;79.70
40660;DHT22;26753;45.544;9.232;2022-07-12T02:42:53;26.40;79.80
40660;DHT22;26753;45.544;9.232;2022-07-12T02:45:19;26.40;79.90
40660;DHT22;26753;45.544;9.232;2022-07-12T02:47:45;26.40;80.00
40660;DHT22;26753;45.544;9.232;2022-07-12T02:50:11;26.40;80.00
40660;DHT22;26753;45.544;9.232;2022-07-12T02:52:40;26.30;80.00
40660;DHT22;26753;45.544;9.232;2022-07-12T02:55:08;26.30;80.30
40660;DHT22;26753;45.544;9.232;2022-07-12T02:57:34;26.30;80.00
40660;DHT22;26753;45.544;9.232;2022-07-12T03:00:03;26.30;80.10
40660;DHT22;26753;45.544;9.232;2022-07-12T03:02:33;26.30;80.20
40660;DHT22;26753;45.544;9.232;2022-07-12T03:04:59;26.30;80.10
40660;DHT22;26753;45.544;9.232;2022-07-12T03:07:29;26.30;80.20
40660;DHT22;26753;45.544;9.232;2022-07-12T03:09:58;26.30;80.30
40660;DHT22;26753;45.544;9.232;2022-07-12T03:12:24;26.30;80.30
40660;DHT22;26753;45.544;9.232;2022-07-12T03:14:50;26.30;80.30
40660;DHT22;26753;45.544;9.232;2022-07-12T03:17:19;26.30;80.90
40660;DHT22;26753;45.544;9.232;2022-07-12T03:19:52;26.40;81.30
40660;DHT22;26753;45.544;9.232;2022-07-12T03:22:18;26.40;81.20
40660;DHT22;26753;45.544;9.232;2022-07-12T03:24:53;26.50;80.40
40660;DHT22;26753;45.544;9.232;2022-07-12T03:27:19;26.50;80.30
40660;DHT22;26753;45.544;9.232;2022-07-12T03:29:45;26.50;80.00
40660;DHT22;26753;45.544;9.232;2022-07-12T03:32:11;26.50;79.90
40660;DHT22;26753;45.544;9.232;2022-07-12T03:34:37;26.50;79.90
40660;DHT22;26753;45.544;9.232;2022-07-12T03:37:04;26.50;79.90
40660;DHT22;26753;45.544;9.232;2022-07-12T03:39:30;26.50;79.90
40660;DHT22;26753;45.544;9.232;2022-07-12T03:41:56;26.50;79.70
40660;DHT22;26753;45.544;9.232;2022-07-12T03:44:22;26.50;79.70
40660;DHT22;26753;45.544;9.232;2022-07-12T03:46:48;26.50;79.70
40660;DHT22;26753;45.544;9.232;2022-07-12T03:49:14;26.50;79.60
40660;DHT22;26753;45.544;9.232;2022-07-12T03:51:46;26.50;79.30
40660;DHT22;26753;45.544;9.232;2022-07-12T03:54:12;26.60;79.30
40660;DHT22;26753;45.544;9.232;2022-07-12T03:56:38;26.50;79.10
40660;DHT22;26753;45.544;9.232;2022-07-12T03:59:22;26.50;79.00
40660;DHT22;26753;45.544;9.232;2022-07-12T04:01:51;26.60;78.90
40660;DHT22;26753;45.544;9.232;2022-07-12T04:04:20;26.60;78.70
40660;DHT22;26753;45.544;9.232;2022-07-12T04:06:46;26.60;78.60
40660;DHT22;26753;45.544;9.232;2022-07-12T04:09:12;26.60;78.50
40660;DHT22;26753;45.544;9.232;2022-07-12T04:11:38;26.60;78.60
40660;DHT22;26753;45.544;9.232;2022-07-12T04:14:04;26.60;78.70
40660;DHT22;26753;45.544;9.232;2022-07-12T04:16:33;26.60;78.60
40660;DHT22;26753;45.544;9.232;2022-07-12T04:18:59;26.70;78.80
40660;DHT22;26753;45.544;9.232;2022-07-12T04:21:25;26.70;78.80
40660;DHT22;26753;45.544;9.232;2022-07-12T04:23:50;26.80;78.90
40660;DHT22;26753;45.544;9.232;2022-07-12T04:26:16;26.80;79.30
40660;DHT22;26753;45.544;9.232;2022-07-12T04:28:42;26.80;78.90
40660;DHT22;26753;45.544;9.232;2022-07-12T04:31:08;26.90;79.00
40660;DHT22;26753;45.544;9.232;2022-07-12T04:33:38;26.90;79.10
40660;DHT22;26753;45.544;9.232;2022-07-12T04:36:04;26.90;79.00
40660;DHT22;26753;45.544;9.232;2022-07-12T04:38:29;26.90;79.70
40660;DHT22;26753;45.544;9.232;2022-07-12T04:40:55;26.90;79.20
40660;DHT22;26753;45.544;9.232;2022-07-12T04:43:33;26.90;79.20
40660;DHT22;26753;45.544;9.232;2022-07-12T04:46:09;26.90;79.30
40660;DHT22;26753;45.544;9.232;2022-07-12T04:48:35;26.90;79.40
40660;DHT22;26753;45.544;9.232;2022-07-12T04:51:02;26.90;79.30
40660;DHT22;26753;45.544;9.232;2022-07-12T04:53:28;27.00;79.30
40660;DHT22;26753;45.544;9.232;2022-07-12T04:55:54;26.90;79.10
40660;DHT22;26753;45.544;9.232;2022-07-12T04:58:21;27.00;79.00
40660;DHT22;26753;45.544;9.232;2022-07-12T05:00:47;27.00;79.00
40660;DHT22;26753;45.544;9.232;2022-07-12T05:03:13;27.00;78.90
40660;DHT22;26753;45.544;9.232;2022-07-12T05:05:38;27.10;78.90
40660;DHT22;26753;45.544;9.232;2022-07-12T05:08:04;27.10;79.00
40660;DHT22;26753;45.544;9.232;2022-07-12T05:10:30;27.10;78.90
40660;DHT22;26753;45.544;9.232;2022-07-12T05:12:56;27.10;78.80
40660;DHT22;26753;45.544;9.232;2022-07-12T05:15:22;27.40;79.00
40660;DHT22;26753;45.544;9.232;2022-07-12T05:17:51;27.10;78.80
40660;DHT22;26753;45.544;9.232;2022-07-12T05:20:17;27.10;78.70
40660;DHT22;26753;45.544;9.232;2022-07-12T05:22:42;27.20;78.80
40660;DHT22;26753;45.544;9.232;2022-07-12T05:25:17;27.20;79.10
40660;DHT22;26753;45.544;9.232;2022-07-12T05:27:43;27.20;79.00
40660;DHT22;26753;45.544;9.232;2022-07-12T05:30:09;27.10;78.80
40660;DHT22;26753;45.544;9.232;2022-07-12T05:32:35;27.10;78.70
40660;DHT22;26753;45.544;9.232;2022-07-12T05:35:01;27.10;79.00
40660;DHT22;26753;45.544;9.232;2022-07-12T05:37:26;27.10;78.80
40660;DHT22;26753;45.544;9.232;2022-07-12T05:39:52;27.20;78.70
40660;DHT22;26753;45.544;9.232;2022-07-12T05:42:18;27.20;78.50
40660;DHT22;26753;45.544;9.232;2022-07-12T05:44:44;27.10;78.30
40660;DHT22;26753;45.544;9.232;2022-07-12T05:47:13;27.20;78.50
40660;DHT22;26753;45.544;9.232;2022-07-12T05:49:39;27.20;78.50
40660;DHT22;26753;45.544;9.232;2022-07-12T05:52:07;27.20;78.50
40660;DHT22;26753;45.544;9.232;2022-07-12T05:54:52;27.20;78.40
40660;DHT22;26753;45.544;9.232;2022-07-12T05:57:20;27.40;78.40
40660;DHT22;26753;45.544;9.232;2022-07-12T05:59:46;27.50;78.50
40660;DHT22;26753;45.544;9.232;2022-07-12T06:02:11;27.60;78.50
40660;DHT22;26753;45.544;9.232;2022-07-12T06:04:37;27.80;78.40
40660;DHT22;26753;45.544;9.232;2022-07-12T06:07:03;27.90;78.40
40660;DHT22;26753;45.544;9.232;2022-07-12T06:09:29;28.00;78.40
40660;DHT22;26753;45.544;9.232;2022-07-12T06:11:55;28.00;78.50
40660;DHT22;26753;45.544;9.232;2022-07-12T06:14:20;28.00;78.50
40660;DHT22;26753;45.544;9.232;2022-07-12T06:16:46;28.10;78.90
40660;DHT22;26753;45.544;9.232;2022-07-12T06:19:12;28.00;79.30
40660;DHT22;26753;45.544;9.232;2022-07-12T06:21:38;27.90;79.70
40660;DHT22;26753;45.544;9.232;2022-07-12T06:24:04;27.90;79.90
40660;DHT22;26753;45.544;9.232;2022-07-12T06:26:30;27.80;80.40
40660;DHT22;26753;45.544;9.232;2022-07-12T06:28:56;27.70;80.70
40660;DHT22;26753;45.544;9.232;2022-07-12T06:31:24;27.70;81.30
40660;DHT22;26753;45.544;9.232;2022-07-12T06:33:51;27.70;81.40
40660;DHT22;26753;45.544;9.232;2022-07-12T06:36:19;27.80;81.60
40660;DHT22;26753;45.544;9.232;2022-07-12T06:38:45;27.90;81.80
40660;DHT22;26753;45.544;9.232;2022-07-12T06:41:10;28.00;82.20
40660;DHT22;26753;45.544;9.232;2022-07-12T06:43:36;28.10;81.90
40660;DHT22;26753;45.544;9.232;2022-07-12T06:46:05;28.10;81.70
40660;DHT22;26753;45.544;9.232;2022-07-12T06:48:31;28.10;81.70
40660;DHT22;26753;45.544;9.232;2022-07-12T06:51:00;28.20;81.80
40660;DHT22;26753;45.544;9.232;2022-07-12T06:53:26;28.20;81.60
40660;DHT22;26753;45.544;9.232;2022-07-12T06:55:52;28.40;81.80
40660;DHT22;26753;45.544;9.232;2022-07-12T06:58:17;28.40;81.50
40660;DHT22;26753;45.544;9.232;2022-07-12T07:00:43;28.50;81.70
40660;DHT22;26753;45.544;9.232;2022-07-12T07:03:09;28.50;82.10
40660;DHT22;26753;45.544;9.232;2022-07-12T07:05:36;28.50;81.90
40660;DHT22;26753;45.544;9.232;2022-07-12T07:08:02;28.60;81.90
40660;DHT22;26753;45.544;9.232;2022-07-12T07:10:28;28.70;82.00
40660;DHT22;26753;45.544;9.232;2022-07-12T07:12:54;28.70;82.00
40660;DHT22;26753;45.544;9.232;2022-07-12T07:15:20;28.70;82.00
40660;DHT22;26753;45.544;9.232;2022-07-12T07:17:46;28.80;82.10
40660;DHT22;26753;45.544;9.232;2022-07-12T07:20:12;28.80;82.30
40660;DHT22;26753;45.544;9.232;2022-07-12T07:22:38;28.80;82.30
40660;DHT22;26753;45.544;9.232;2022-07-12T07:25:05;28.70;82.50
40660;DHT22;26753;45.544;9.232;2022-07-12T07:27:31;28.70;82.60
40660;DHT22;26753;45.544;9.232;2022-07-12T07:29:57;28.70;82.70
40660;DHT22;26753;45.544;9.232;2022-07-12T07:32:41;28.70;83.00
40660;DHT22;26753;45.544;9.232;2022-07-12T07:35:07;28.70;83.30
40660;DHT22;26753;45.544;9.232;2022-07-12T07:37:34;28.80;83.20
40660;DHT22;26753;45.544;9.232;2022-07-12T07:40:00;28.90;83.10
40660;DHT22;26753;45.544;9.232;2022-07-12T07:42:26;29.00;83.30
40660;DHT22;26753;45.544;9.232;2022-07-12T07:44:52;29.00;83.10
40660;DHT22;26753;45.544;9.232;2022-07-12T07:47:17;29.10;83.20
40660;DHT22;26753;45.544;9.232;2022-07-12T07:49:43;29.20;83.30
40660;DHT22;26753;45.544;9.232;2022-07-12T07:52:09;29.40;83.20
40660;DHT22;26753;45.544;9.232;2022-07-12T07:54:35;29.60;83.00
40660;DHT22;26753;45.544;9.232;2022-07-12T07:57:08;29.70;82.80
40660;DHT22;26753;45.544;9.232;2022-07-12T07:59:38;29.90;82.60
40660;DHT22;26753;45.544;9.232;2022-07-12T08:02:05;30.00;82.70
40660;DHT22;26753;45.544;9.232;2022-07-12T08:04:39;29.90;82.00
40660;DHT22;26753;45.544;9.232;2022-07-12T08:07:31;29.60;82.90
40660;DHT22;26753;45.544;9.232;2022-07-12T08:10:00;29.50;83.00
40660;DHT22;26753;45.544;9.232;2022-07-12T08:12:38;29.60;82.70
40660;DHT22;26753;45.544;9.232;2022-07-12T08:15:07;29.70;82.70
40660;DHT22;26753;45.544;9.232;2022-07-12T08:17:33;30.00;82.40
40660;DHT22;26753;45.544;9.232;2022-07-12T08:19:59;30.30;81.70
40660;DHT22;26753;45.544;9.232;2022-07-12T08:22:25;30.40;81.00
40660;DHT22;26753;45.544;9.232;2022-07-12T08:24:52;30.50;81.10
40660;DHT22;26753;45.544;9.232;2022-07-12T08:27:17;30.50;81.40
40660;DHT22;26753;45.544;9.232;2022-07-12T08:29:43;30.60;80.70
40660;DHT22;26753;45.544;9.232;2022-07-12T08:32:09;30.60;80.60
40660;DHT22;26753;45.544;9.232;2022-07-12T08:34:35;30.70;80.20
40660;DHT22;26753;45.544;9.232;2022-07-12T08:37:01;30.70;79.90
40660;DHT22;26753;45.544;9.232;2022-07-12T08:39:26;30.80;79.80
40660;DHT22;26753;45.544;9.232;2022-07-12T08:41:52;30.80;79.80
40660;DHT22;26753;45.544;9.232;2022-07-12T08:44:18;30.80;79.90
40660;DHT22;26753;45.544;9.232;2022-07-12T08:46:46;31.10;79.70
40660;DHT22;26753;45.544;9.232;2022-07-12T08:49:18;31.20;79.90
40660;DHT22;26753;45.544;9.232;2022-07-12T08:51:44;31.10;79.10
40660;DHT22;26753;45.544;9.232;2022-07-12T08:54:11;31.00;79.50
40660;DHT22;26753;45.544;9.232;2022-07-12T08:56:39;30.80;79.80
40660;DHT22;26753;45.544;9.232;2022-07-12T08:59:19;30.60;80.20
40660;DHT22;26753;45.544;9.232;2022-07-12T09:01:51;30.50;80.90
40660;DHT22;26753;45.544;9.232;2022-07-12T09:04:24;30.30;81.20
40660;DHT22;26753;45.544;9.232;2022-07-12T09:06:51;30.10;81.30
40660;DHT22;26753;45.544;9.232;2022-07-12T09:09:32;30.00;81.40
40660;DHT22;26753;45.544;9.232;2022-07-12T09:11:59;30.00;81.00
40660;DHT22;26753;45.544;9.232;2022-07-12T09:14:53;30.10;81.00
40660;DHT22;26753;45.544;9.232;2022-07-12T09:17:22;30.00;81.00
40660;DHT22;26753;45.544;9.232;2022-07-12T09:20:15;30.00;81.20
40660;DHT22;26753;45.544;9.232;2022-07-12T09:23:04;30.10;81.40
40660;DHT22;26753;45.544;9.232;2022-07-12T09:25:50;30.20;80.90
40660;DHT22;26753;45.544;9.232;2022-07-12T09:28:16;30.30;80.30
40660;DHT22;26753;45.544;9.232;2022-07-12T09:30:52;30.30;80.50
40660;DHT22;26753;45.544;9.232;2022-07-12T09:33:20;30.40;81.00
40660;DHT22;26753;45.544;9.232;2022-07-12T09:36:06;30.50;80.90
40660;DHT22;26753;45.544;9.232;2022-07-12T09:38:53;30.60;80.90
40660;DHT22;26753;45.544;9.232;2022-07-12T09:41:23;30.10;82.20
40660;DHT22;26753;45.544;9.232;2022-07-12T09:43:53;30.00;82.30
40660;DHT22;26753;45.544;9.232;2022-07-12T09:46:21;29.80;82.60
40660;DHT22;26753;45.544;9.232;2022-07-12T09:48:47;29.90;82.80
40660;DHT22;26753;45.544;9.232;2022-07-12T09:51:15;29.80;83.10
40660;DHT22;26753;45.544;9.232;2022-07-12T09:53:46;30.00;82.60
40660;DHT22;26753;45.544;9.232;2022-07-12T09:56:17;30.10;82.30
40660;DHT22;26753;45.544;9.232;2022-07-12T10:01:19;30.50;81.40
40660;DHT22;26753;45.544;9.232;2022-07-12T10:03:46;30.60;81.20
40660;DHT22;26753;45.544;9.232;2022-07-12T10:06:24;30.80;81.20
40660;DHT22;26753;45.544;9.232;2022-07-12T10:08:51;30.90;81.00
40660;DHT22;26753;45.544;9.232;2022-07-12T10:11:19;30.90;80.60
40660;DHT22;26753;45.544;9.232;2022-07-12T10:13:49;31.10;80.40
40660;DHT22;26753;45.544;9.232;2022-07-12T10:16:25;30.90;80.20
40660;DHT22;26753;45.544;9.232;2022-07-12T10:19:27;30.80;80.30
40660;DHT22;26753;45.544;9.232;2022-07-12T10:21:56;31.00;78.80
40660;DHT22;26753;45.544;9.232;2022-07-12T10:26:58;30.80;79.10
40660;DHT22;26753;45.544;9.232;2022-07-12T10:29:24;31.00;79.20
40660;DHT22;26753;45.544;9.232;2022-07-12T10:31:51;31.20;79.00
40660;DHT22;26753;45.544;9.232;2022-07-12T10:34:22;31.40;78.60
40660;DHT22;26753;45.544;9.232;2022-07-12T10:39:22;31.80;78.10
40660;DHT22;26753;45.544;9.232;2022-07-12T10:42:12;32.00;77.80
40660;DHT22;26753;45.544;9.232;2022-07-12T10:44:48;32.20;77.00
40660;DHT22;26753;45.544;9.232;2022-07-12T10:47:15;32.30;76.90
40660;DHT22;26753;45.544;9.232;2022-07-12T10:49:51;32.40;77.00
40660;DHT22;26753;45.544;9.232;2022-07-12T10:52:24;32.50;76.80
40660;DHT22;26753;45.544;9.232;2022-07-12T10:57:57;32.70;76.70
40660;DHT22;26753;45.544;9.232;2022-07-12T11:00:23;32.90;76.40
40660;DHT22;26753;45.544;9.232;2022-07-12T11:02:49;32.90;76.60
40660;DHT22;26753;45.544;9.232;2022-07-12T11:05:24;33.00;76.70
40660;DHT22;26753;45.544;9.232;2022-07-12T11:07:50;33.10;76.70
40660;DHT22;26753;45.544;9.232;2022-07-12T11:10:16;33.20;76.60
40660;DHT22;26753;45.544;9.232;2022-07-12T11:12:42;33.40;76.40
40660;DHT22;26753;45.544;9.232;2022-07-12T11:15:11;33.50;76.30
40660;DHT22;26753;45.544;9.232;2022-07-12T11:17:39;33.30;76.80
40660;DHT22;26753;45.544;9.232;2022-07-12T11:20:07;33.30;76.70
40660;DHT22;26753;45.544;9.232;2022-07-12T11:22:37;33.50;76.60
40660;DHT22;26753;45.544;9.232;2022-07-12T11:25:05;33.50;76.40
40660;DHT22;26753;45.544;9.232;2022-07-12T11:27:34;33.50;76.50
40660;DHT22;26753;45.544;9.232;2022-07-12T11:30:01;33.30;76.80
40660;DHT22;26753;45.544;9.232;2022-07-12T11:32:38;33.30;76.70
40660;DHT22;26753;45.544;9.232;2022-07-12T11:35:17;33.50;76.40
40660;DHT22;26753;45.544;9.232;2022-07-12T11:37:51;33.70;76.10
40660;DHT22;26753;45.544;9.232;2022-07-12T11:40:24;33.80;75.90
40660;DHT22;26753;45.544;9.232;2022-07-12T11:42:57;34.10;75.60
40660;DHT22;26753;45.544;9.232;2022-07-12T11:45:28;34.10;75.20
40660;DHT22;26753;45.544;9.232;2022-07-12T11:47:57;34.50;74.90
40660;DHT22;26753;45.544;9.232;2022-07-12T11:50:26;34.50;74.70
40660;DHT22;26753;45.544;9.232;2022-07-12T11:52:52;34.80;74.20
40660;DHT22;26753;45.544;9.232;2022-07-12T11:55:18;34.90;74.00
40660;DHT22;26753;45.544;9.232;2022-07-12T11:57:44;35.20;73.70
40660;DHT22;26753;45.544;9.232;2022-07-12T12:00:14;35.40;73.40
40660;DHT22;26753;45.544;9.232;2022-07-12T12:02:40;35.50;73.00
40660;DHT22;26753;45.544;9.232;2022-07-12T12:05:06;35.70;72.80
40660;DHT22;26753;45.544;9.232;2022-07-12T12:07:32;35.70;72.70
40660;DHT22;26753;45.544;9.232;2022-07-12T12:09:59;35.70;72.70
40660;DHT22;26753;45.544;9.232;2022-07-12T12:12:34;35.20;73.10
40660;DHT22;26753;45.544;9.232;2022-07-12T12:15:07;35.30;73.20
40660;DHT22;26753;45.544;9.232;2022-07-12T12:17:34;35.60;73.00
40660;DHT22;26753;45.544;9.232;2022-07-12T12:20:19;35.70;72.50
40660;DHT22;26753;45.544;9.232;2022-07-12T12:22:47;35.80;72.10
40660;DHT22;26753;45.544;9.232;2022-07-12T12:25:14;35.90;72.10
40660;DHT22;26753;45.544;9.232;2022-07-12T12:27:46;35.90;71.80
40660;DHT22;26753;45.544;9.232;2022-07-12T12:30:13;36.00;71.60
40660;DHT22;26753;45.544;9.232;2022-07-12T12:32:55;36.20;71.70
40660;DHT22;26753;45.544;9.232;2022-07-12T12:35:29;36.50;71.10
40660;DHT22;26753;45.544;9.232;2022-07-12T12:38:01;36.30;71.90
40660;DHT22;26753;45.544;9.232;2022-07-12T12:40:31;36.10;72.00
40660;DHT22;26753;45.544;9.232;2022-07-12T12:43:13;35.70;72.60
40660;DHT22;26753;45.544;9.232;2022-07-12T12:45:55;35.90;72.50
40660;DHT22;26753;45.544;9.232;2022-07-12T12:48:27;36.00;72.40
40660;DHT22;26753;45.544;9.232;2022-07-12T12:50:54;36.30;72.20
40660;DHT22;26753;45.544;9.232;2022-07-12T12:53:27;36.40;72.00
40660;DHT22;26753;45.544;9.232;2022-07-12T12:55:54;36.70;71.50
40660;DHT22;26753;45.544;9.232;2022-07-12T12:58:21;36.90;70.90
40660;DHT22;26753;45.544;9.232;2022-07-12T13:00:48;37.00;70.70
40660;DHT22;26753;45.544;9.232;2022-07-12T13:03:16;37.40;70.50
40660;DHT22;26753;45.544;9.232;2022-07-12T13:05:45;37.20;70.60
40660;DHT22;26753;45.544;9.232;2022-07-12T13:08:13;37.00;70.50
40660;DHT22;26753;45.544;9.232;2022-07-12T13:10:41;37.00;70.50
40660;DHT22;26753;45.544;9.232;2022-07-12T13:13:08;36.70;70.70
40660;DHT22;26753;45.544;9.232;2022-07-12T13:15:34;36.20;70.90
40660;DHT22;26753;45.544;9.232;2022-07-12T13:18:00;35.80;71.50
40660;DHT22;26753;45.544;9.232;2022-07-12T13:20:28;36.20;71.40
40660;DHT22;26753;45.544;9.232;2022-07-12T13:22:54;36.20;71.20
40660;DHT22;26753;45.544;9.232;2022-07-12T13:25:21;36.30;71.00
40660;DHT22;26753;45.544;9.232;2022-07-12T13:27:47;36.20;70.90
40660;DHT22;26753;45.544;9.232;2022-07-12T13:30:14;36.10;71.00
40660;DHT22;26753;45.544;9.232;2022-07-12T13:32:41;36.50;70.80
40660;DHT22;26753;45.544;9.232;2022-07-12T13:35:09;37.10;70.30
40660;DHT22;26753;45.544;9.232;2022-07-12T13:37:37;37.70;69.80
40660;DHT22;26753;45.544;9.232;2022-07-12T13:40:04;37.80;69.10
40660;DHT22;26753;45.544;9.232;2022-07-12T13:42:42;38.40;68.80
40660;DHT22;26753;45.544;9.232;2022-07-12T13:45:14;38.70;68.20
40660;DHT22;26753;45.544;9.232;2022-07-12T13:47:40;38.80;67.70
40660;DHT22;26753;45.544;9.232;2022-07-12T13:50:07;38.70;67.50
40660;DHT22;26753;45.544;9.232;2022-07-12T13:52:33;38.60;68.00
40660;DHT22;26753;45.544;9.232;2022-07-12T13:54:59;38.80;67.50
40660;DHT22;26753;45.544;9.232;2022-07-12T13:57:25;39.20;67.30
40660;DHT22;26753;45.544;9.232;2022-07-12T13:59:51;39.00;67.00
40660;DHT22;26753;45.544;9.232;2022-07-12T14:02:18;39.10;67.50
40660;DHT22;26753;45.544;9.232;2022-07-12T14:04:44;39.50;66.90
40660;DHT22;26753;45.544;9.232;2022-07-12T14:07:10;40.00;66.40
40660;DHT22;26753;45.544;9.232;2022-07-12T14:09:36;40.10;65.70
40660;DHT22;26753;45.544;9.232;2022-07-12T14:12:02;39.70;65.70
40660;DHT22;26753;45.544;9.232;2022-07-12T14:14:29;39.20;66.20
40660;DHT22;26753;45.544;9.232;2022-07-12T14:17:13;39.20;66.40
40660;DHT22;26753;45.544;9.232;2022-07-12T14:19:39;39.40;66.10
40660;DHT22;26753;45.544;9.232;2022-07-12T14:22:05;39.80;65.90
40660;DHT22;26753;45.544;9.232;2022-07-12T14:24:31;40.40;65.40
40660;DHT22;26753;45.544;9.232;2022-07-12T14:26:56;40.40;65.00
40660;DHT22;26753;45.544;9.232;2022-07-12T14:29:22;40.30;64.70
40660;DHT22;26753;45.544;9.232;2022-07-12T14:31:48;40.30;64.80
40660;DHT22;26753;45.544;9.232;2022-07-12T14:34:15;40.00;65.50
40660;DHT22;26753;45.544;9.232;2022-07-12T14:36:41;40.00;65.70
40660;DHT22;26753;45.544;9.232;2022-07-12T14:39:06;39.80;65.70
40660;DHT22;26753;45.544;9.232;2022-07-12T14:41:32;39.70;65.50
40660;DHT22;26753;45.544;9.232;2022-07-12T14:43:58;40.00;65.50
40660;DHT22;26753;45.544;9.232;2022-07-12T14:46:24;40.20;65.40
40660;DHT22;26753;45.544;9.232;2022-07-12T14:48:50;40.40;64.80
40660;DHT22;26753;45.544;9.232;2022-07-12T14:51:15;40.40;65.10
40660;DHT22;26753;45.544;9.232;2022-07-12T14:53:41;41.10;64.70
40660;DHT22;26753;45.544;9.232;2022-07-12T14:56:07;41.30;64.40
40660;DHT22;26753;45.544;9.232;2022-07-12T14:58:32;41.90;64.00
40660;DHT22;26753;45.544;9.232;2022-07-12T15:00:58;41.60;63.70
40660;DHT22;26753;45.544;9.232;2022-07-12T15:03:24;41.20;63.70
40660;DHT22;26753;45.544;9.232;2022-07-12T15:05:52;41.20;64.20
40660;DHT22;26753;45.544;9.232;2022-07-12T15:08:18;41.10;64.60
40660;DHT22;26753;45.544;9.232;2022-07-12T15:10:44;41.60;64.30
40660;DHT22;26753;45.544;9.232;2022-07-12T15:13:11;42.30;63.70
40660;DHT22;26753;45.544;9.232;2022-07-12T15:15:37;42.90;63.10
40660;DHT22;26753;45.544;9.232;2022-07-12T15:18:03;43.80;62.80
40660;DHT22;26753;45.544;9.232;2022-07-12T15:20:28;44.50;62.70
40660;DHT22;26753;45.544;9.232;2022-07-12T15:22:54;45.90;61.00
40660;DHT22;26753;45.544;9.232;2022-07-12T15:25:19;45.60;60.30
40660;DHT22;26753;45.544;9.232;2022-07-12T15:27:45;46.00;59.30
40660;DHT22;26753;45.544;9.232;2022-07-12T15:30:11;46.80;59.00
40660;DHT22;26753;45.544;9.232;2022-07-12T15:32:37;47.90;58.30
40660;DHT22;26753;45.544;9.232;2022-07-12T15:35:04;49.20;57.40
40660;DHT22;26753;45.544;9.232;2022-07-12T15:37:30;50.30;56.50
40660;DHT22;26753;45.544;9.232;2022-07-12T15:39:55;50.90;55.50
40660;DHT22;26753;45.544;9.232;2022-07-12T15:42:21;51.50;55.00
40660;DHT22;26753;45.544;9.232;2022-07-12T15:44:47;50.40;54.80
40660;DHT22;26753;45.544;9.232;2022-07-12T15:47:12;49.30;55.40